LFLLMUHA

Guest
Details From LFLL - Lyon Saint Exupery
To MUHA - Havana Jose Marti Intl
Flight Number -
Tags decoded
Created
Modified
Stats Distance 4,329 nm / 8,018 km
Max Altitude 0 ft / 0 m
Waypoints 4
Social Downloads 0
Likes 0
Share VATSIM

Download

Looking for another format? Having issues loading an existing format? Contact us
Advertisement - Login to hide

Notes

Requested: LFLL MOKOR BURBO TADPO MUHA

Route

LFLL MOKOR TADPO MUHA

ID Type Via Altitude Latitude Longitude Leg Dist Tot Dist Heading (true) Name
O LFLL APT - 0 ft / 0 m 45.72581˚ 5.09075˚ - 0 nm - Lyon Saint Exupery
MOKOR FIX - 0 ft / 0 m 47.00694˚ -2.01389˚ 304 nm 304 nm 287° / 282° -
TADPO FIX - 0 ft / 0 m 24.00044˚ -81.21700˚ 3935 nm 4239 nm 280° / 227° -
O MUHA APT - 0 ft / 0 m 22.98915˚ -82.40909˚ 89 nm 4329 nm 227° / 227° Havana Jose Marti Intl

Altitude Profile

Advertisement - Login to hide

Weather


0- 5 10 15 20 25 30 35+ Temperature / ° C

Clouds and Precipitation
Forecast for 2017-12-12 12:00 UTC. Updated an hour ago

Ground ~20,000 ft ~40,000 ft Winds

LFLL

Details ICAO LFLL (LYS)
Name Lyon Saint Exupery
Region France
Timezone Europe/Paris (UTC+1.0)
Stats Elevation 820 ft / 250 m (AMSL)
Location 45.725812° 5.090748°
Runways 2
Magnetic Variation 1.487° E

METAR

LFLL 121000Z VRB02KT 9999 -RA FEW010 BKN016 04/01 Q1014 TEMPO -SHRA

Decode

TAF

TAF AMD LFLL 120706Z 1207/1312 36005KT 9999 SCT025 BKN040 PROB40 TEMPO 1207/1209 4000 -SHRA OVC020 BECMG 1215/1218 CAVOK PROB30 TEMPO 1221/1306 2000 MIFG

Decode

Departure Runways

ID Width Length Bearing (true) Bearing (mag) Surface Threshold Offset Overrun Length
18L 148 ft / 45 m 8,798 ft / 2,682 m 175.13° 173.64° Asphalt 33 ft / 10 m 52 ft / 16 m
18R 148 ft / 45 m 13,149 ft / 4,008 m 175.14° 173.65° Asphalt 16 ft / 5 m 203 ft / 62 m
36L 148 ft / 45 m 13,149 ft / 4,008 m 355.15° 353.66° Asphalt 36 ft / 11 m 151 ft / 46 m
36R 148 ft / 45 m 8,798 ft / 2,682 m 355.13° 353.64° Asphalt 26 ft / 8 m 52 ft / 16 m

MUHA

Details ICAO MUHA (HAV)
Name Havana Jose Marti Intl
Region Cuba
Timezone America/Havana (UTC-5.0)
Stats Elevation 209 ft / 64 m (AMSL)
Location 22.989154° -82.409086°
Runways 1
Magnetic Variation 4.907° W

METAR

MUHA 120955Z 04002KT 9999 NSC 11/10 Q1019

Decode

TAF

Not found

Destination Runways

ID Width Length Bearing (true) Bearing (mag) Surface Threshold Offset Overrun Length
06 148 ft / 45 m 13,133 ft / 4,003 m 54.21° 59.12° Asphalt 0 ft / 0 m 476 ft / 145 m
24 148 ft / 45 m 13,133 ft / 4,003 m 234.23° 239.14° Asphalt 0 ft / 0 m 197 ft / 60 m

Approach Navaids

Runway Type Ident Frequency Range Bearing (true) Bearing (mag) Slope Elevation
06 Localiser IHA 110.50 MHz 18 nm / 33 km 54.23° 59.14° - 209 ft / 64 m (AMSL)
06 Glidescope IHA 110.50 MHz 10 nm / 19 km 54.22° 59.13° 3.00° 209 ft / 64 m (AMSL)

Popular Alternatives